createdAt,value
2023-04-19T00:01:44.443Z,55.90
2023-04-19T00:04:11.179Z,55.90
2023-04-19T00:06:37.816Z,55.90
2023-04-19T00:09:04.322Z,55.90
2023-04-19T00:11:30.805Z,55.90
2023-04-19T00:13:57.297Z,55.80
2023-04-19T00:16:23.786Z,55.90
2023-04-19T00:18:50.269Z,56.00
2023-04-19T00:21:16.736Z,55.90
2023-04-19T00:23:43.207Z,56.00
2023-04-19T00:26:09.674Z,56.00
2023-04-19T00:28:36.137Z,56.00
2023-04-19T00:31:02.643Z,56.00
2023-04-19T00:33:29.152Z,56.10
2023-04-19T00:35:55.654Z,56.10
2023-04-19T00:38:22.135Z,56.00
2023-04-19T00:40:52.156Z,56.00
2023-04-19T00:43:18.629Z,56.00
2023-04-19T00:45:45.133Z,56.00
2023-04-19T00:48:11.668Z,56.00
2023-04-19T00:50:38.137Z,56.10
2023-04-19T00:53:04.641Z,56.00
2023-04-19T00:55:31.117Z,56.20
2023-04-19T00:57:57.612Z,56.00
2023-04-19T01:00:24.101Z,56.10
2023-04-19T01:02:50.801Z,56.20
2023-04-19T01:05:17.334Z,56.20
2023-04-19T01:07:43.833Z,56.10
2023-04-19T01:10:10.322Z,56.70
2023-04-19T01:12:36.827Z,56.10
2023-04-19T01:15:03.278Z,56.20
2023-04-19T01:17:29.815Z,56.20
2023-04-19T01:19:56.328Z,56.10
2023-04-19T01:22:22.882Z,56.10
2023-04-19T01:24:52.156Z,56.20
2023-04-19T01:27:18.638Z,56.20
2023-04-19T01:29:45.129Z,56.20
2023-04-19T01:32:11.588Z,56.20
2023-04-19T01:34:38.052Z,56.20
2023-04-19T01:37:04.548Z,56.30
2023-04-19T01:39:31.030Z,56.20
2023-04-19T01:41:57.517Z,56.20
2023-04-19T01:44:23.981Z,56.20
2023-04-19T01:46:50.489Z,56.20
2023-04-19T01:49:16.998Z,56.20
2023-04-19T01:51:43.468Z,56.20
2023-04-19T01:54:09.939Z,56.20
2023-04-19T01:56:36.398Z,56.20
2023-04-19T01:59:02.854Z,56.20
2023-04-19T02:01:29.387Z,56.20
2023-04-19T02:03:56.056Z,56.20
2023-04-19T02:06:22.687Z,56.20
2023-04-19T02:08:49.186Z,56.20
2023-04-19T02:11:15.653Z,56.20
2023-04-19T02:13:42.159Z,56.20
2023-04-19T02:16:08.671Z,56.40
2023-04-19T02:18:35.180Z,56.40
2023-04-19T02:21:01.666Z,56.40
2023-04-19T02:23:28.162Z,56.30
2023-04-19T02:25:54.645Z,56.20
2023-04-19T02:28:21.131Z,56.30
2023-04-19T02:30:47.590Z,56.20
2023-04-19T02:33:14.089Z,56.30
2023-04-19T02:35:40.579Z,56.20
2023-04-19T02:38:07.025Z,56.20
2023-04-19T02:40:33.512Z,56.30
2023-04-19T02:43:00.014Z,56.50
2023-04-19T02:45:26.487Z,56.40
2023-04-19T02:47:53.013Z,56.90
2023-04-19T02:50:19.490Z,56.50
2023-04-19T02:52:45.971Z,56.40
2023-04-19T02:55:12.442Z,56.40
2023-04-19T02:57:38.907Z,56.30
2023-04-19T03:00:05.393Z,56.30
2023-04-19T03:02:31.946Z,56.30
2023-04-19T03:04:58.472Z,56.30
2023-04-19T03:07:24.930Z,56.40
2023-04-19T03:09:51.412Z,56.30
2023-04-19T03:12:17.902Z,56.40
2023-04-19T03:14:44.386Z,56.50
2023-04-19T03:17:10.874Z,56.40
2023-04-19T03:19:37.355Z,56.40
2023-04-19T03:22:03.865Z,56.40
2023-04-19T03:24:30.372Z,56.30
2023-04-19T03:26:56.856Z,56.40
2023-04-19T03:29:23.347Z,56.40
2023-04-19T03:31:49.910Z,56.40
2023-04-19T03:34:16.658Z,56.40
2023-04-19T03:36:43.350Z,56.40
2023-04-19T03:39:09.842Z,56.40
2023-04-19T03:41:36.286Z,56.30
2023-04-19T03:44:02.812Z,56.40
2023-04-19T03:46:29.322Z,56.40
2023-04-19T03:48:58.292Z,56.40
2023-04-19T03:51:28.297Z,56.40
2023-04-19T03:53:54.785Z,56.40
2023-04-19T03:56:21.280Z,56.40
2023-04-19T03:58:47.753Z,56.40
2023-04-19T04:01:14.235Z,56.40
2023-04-19T04:03:41.036Z,56.40
2023-04-19T04:06:07.799Z,56.40
2023-04-19T04:08:34.285Z,56.30
2023-04-19T04:11:00.768Z,56.30
2023-04-19T04:13:27.273Z,56.30
2023-04-19T04:15:53.784Z,56.20
2023-04-19T04:18:20.306Z,56.20
2023-04-19T04:20:46.794Z,56.30
2023-04-19T04:23:13.253Z,56.20
2023-04-19T04:25:39.733Z,56.40
2023-04-19T04:28:06.219Z,56.20
2023-04-19T04:30:32.695Z,56.30
2023-04-19T04:32:59.249Z,56.30
2023-04-19T04:35:25.788Z,56.20
2023-04-19T04:37:52.276Z,56.30
2023-04-19T04:40:18.751Z,56.40
2023-04-19T04:42:45.238Z,56.30
2023-04-19T04:45:11.713Z,56.00
2023-04-19T04:47:38.209Z,56.20
2023-04-19T04:50:04.728Z,56.10
2023-04-19T04:52:31.204Z,56.10
2023-04-19T04:54:57.692Z,56.70
2023-04-19T04:57:24.174Z,55.90
2023-04-19T04:59:50.734Z,56.00
2023-04-19T05:02:17.312Z,56.00
2023-04-19T05:04:44.007Z,56.00
2023-04-19T05:07:10.572Z,56.00
2023-04-19T05:09:37.061Z,56.00
2023-04-19T05:12:03.538Z,55.70
2023-04-19T05:14:30.024Z,55.80
2023-04-19T05:16:56.553Z,55.80
2023-04-19T05:19:23.075Z,55.70
2023-04-19T05:21:49.540Z,55.70
2023-04-19T05:24:16.165Z,55.60
2023-04-19T05:26:42.845Z,55.60
2023-04-19T05:29:09.321Z,55.50
2023-04-19T05:31:35.827Z,55.50
2023-04-19T05:34:02.344Z,55.90
2023-04-19T05:36:28.830Z,55.30
2023-04-19T05:38:55.309Z,55.30
2023-04-19T05:41:21.824Z,55.20
2023-04-19T05:43:52.487Z,55.30
2023-04-19T05:46:22.516Z,55.40
2023-04-19T05:48:49.063Z,55.20
2023-04-19T05:51:15.534Z,55.20
2023-04-19T05:53:42.008Z,55.20
2023-04-19T05:56:08.484Z,55.00
2023-04-19T05:58:34.946Z,55.20
2023-04-19T06:01:01.442Z,55.30
2023-04-19T06:03:31.065Z,55.20
2023-04-19T06:05:59.048Z,55.00
2023-04-19T06:08:25.546Z,55.00
2023-04-19T06:10:55.701Z,54.80
2023-04-19T06:13:28.402Z,54.60
2023-04-19T06:15:54.996Z,54.60
2023-04-19T06:18:21.481Z,54.30
2023-04-19T06:20:47.946Z,54.30
2023-04-19T06:23:14.427Z,54.10
2023-04-19T06:25:40.910Z,54.20
2023-04-19T06:28:07.398Z,54.30
2023-04-19T06:30:33.912Z,54.20
2023-04-19T06:33:00.462Z,54.30
2023-04-19T06:35:27.165Z,54.20
2023-04-19T06:37:53.664Z,54.00
2023-04-19T06:40:20.215Z,53.90
2023-04-19T06:42:46.729Z,54.00
2023-04-19T06:45:13.228Z,53.90
2023-04-19T06:47:39.726Z,53.70
2023-04-19T06:50:06.263Z,53.70
2023-04-19T06:52:32.743Z,53.70
2023-04-19T06:54:59.250Z,53.60
2023-04-19T06:57:25.727Z,53.50
2023-04-19T06:59:52.252Z,53.40
2023-04-19T07:02:18.800Z,53.20
2023-04-19T07:04:45.513Z,53.40
2023-04-19T07:07:12.394Z,53.30
2023-04-19T07:09:38.875Z,53.40
2023-04-19T07:12:05.360Z,53.00
2023-04-19T07:14:31.853Z,52.90
2023-04-19T07:16:58.333Z,52.80
2023-04-19T07:19:24.818Z,52.60
2023-04-19T07:21:51.321Z,52.70
2023-04-19T07:24:18.086Z,52.80
2023-04-19T07:26:44.766Z,52.80
2023-04-19T07:29:13.345Z,53.00
2023-04-19T07:31:39.842Z,52.80
2023-04-19T07:34:06.344Z,52.50
2023-04-19T07:36:32.846Z,52.60
2023-04-19T07:38:59.313Z,52.80
2023-04-19T07:41:25.785Z,52.50
2023-04-19T07:43:52.268Z,52.50
2023-04-19T07:46:18.893Z,52.80
2023-04-19T07:48:45.436Z,52.50
2023-04-19T07:51:12.179Z,52.50
2023-04-19T07:53:38.665Z,52.30
2023-04-19T07:56:05.151Z,52.50
2023-04-19T07:58:31.631Z,52.40
2023-04-19T08:00:58.165Z,52.50
2023-04-19T08:03:24.772Z,52.40
2023-04-19T08:05:51.440Z,52.30
2023-04-19T08:08:18.019Z,52.00
2023-04-19T08:10:44.516Z,52.00
2023-04-19T08:13:11.005Z,52.40
2023-04-19T08:16:20.441Z,52.30
2023-04-19T08:18:23.992Z,52.30
2023-04-19T08:20:50.505Z,52.10
2023-04-19T08:23:24.098Z,52.00
2023-04-19T08:25:52.426Z,52.00
2023-04-19T08:28:18.952Z,52.40
2023-04-19T08:30:45.500Z,52.10
2023-04-19T08:33:12.002Z,52.00
2023-04-19T08:35:38.591Z,52.10
2023-04-19T08:38:05.061Z,52.20
2023-04-19T08:40:31.565Z,51.90
2023-04-19T08:42:58.048Z,51.90
2023-04-19T08:45:28.365Z,52.00
2023-04-19T08:48:00.962Z,51.60
2023-04-19T08:50:34.516Z,51.70
2023-04-19T08:53:21.035Z,51.50
2023-04-19T08:56:08.672Z,51.60
2023-04-19T08:58:57.035Z,51.70
2023-04-19T09:01:33.758Z,51.80
2023-04-19T09:04:13.036Z,51.70
2023-04-19T09:06:47.346Z,51.80
2023-04-19T09:09:28.427Z,51.20
2023-04-19T09:12:00.322Z,51.20
2023-04-19T09:14:26.884Z,51.20
2023-04-19T09:16:53.382Z,51.30
2023-04-19T09:19:24.849Z,51.30
2023-04-19T09:21:52.096Z,51.20
2023-04-19T09:24:18.593Z,50.20
2023-04-19T09:26:45.120Z,50.20
2023-04-19T09:29:13.328Z,51.50
2023-04-19T09:31:50.564Z,51.40
2023-04-19T09:34:18.202Z,51.30
2023-04-19T09:36:44.675Z,51.30
2023-04-19T09:39:11.276Z,51.20
2023-04-19T09:41:39.581Z,51.10
2023-04-19T09:46:34.257Z,50.90
2023-04-19T09:49:06.551Z,51.00
2023-04-19T09:51:36.069Z,50.50
2023-04-19T09:54:02.551Z,50.00
2023-04-19T09:56:29.034Z,50.50
2023-04-19T09:59:01.591Z,50.50
2023-04-19T10:01:39.366Z,51.10
2023-04-19T10:04:14.950Z,51.00
2023-04-19T10:07:13.982Z,50.50
2023-04-19T10:09:42.752Z,51.00
2023-04-19T10:12:45.627Z,51.20
2023-04-19T10:15:05.001Z,50.90
2023-04-19T10:17:31.499Z,51.10
2023-04-19T10:19:58.005Z,51.10
2023-04-19T10:22:24.496Z,51.00
2023-04-19T10:24:51.011Z,51.00
2023-04-19T10:27:17.494Z,51.20
2023-04-19T10:29:43.984Z,51.00
2023-04-19T10:32:10.476Z,50.80
2023-04-19T10:34:37.006Z,50.90
2023-04-19T10:37:03.479Z,50.90
2023-04-19T10:39:29.949Z,50.70
2023-04-19T10:41:56.429Z,50.90
2023-04-19T10:44:22.900Z,50.80
2023-04-19T10:46:49.407Z,51.00
2023-04-19T10:49:16.300Z,50.80
2023-04-19T10:51:42.973Z,51.40
2023-04-19T10:54:09.452Z,50.70
2023-04-19T10:56:35.987Z,50.70
2023-04-19T10:59:02.624Z,50.60
2023-04-19T11:01:29.230Z,50.50
2023-04-19T11:03:55.967Z,50.50
2023-04-19T11:06:22.547Z,50.50
2023-04-19T11:08:49.051Z,50.50
2023-04-19T11:11:15.546Z,50.60
2023-04-19T11:13:42.034Z,50.40
2023-04-19T11:16:08.541Z,50.40
2023-04-19T11:18:35.076Z,50.40
2023-04-19T11:21:01.613Z,50.30
2023-04-19T11:23:28.117Z,50.50
2023-04-19T11:25:54.594Z,50.60
2023-04-19T11:28:21.073Z,50.40
2023-04-19T11:30:47.550Z,50.50
2023-04-19T11:33:14.067Z,50.30
2023-04-19T11:35:40.576Z,50.30
2023-04-19T11:38:07.073Z,50.30
2023-04-19T11:40:33.554Z,50.60
2023-04-19T11:43:00.075Z,50.40
2023-04-19T11:45:29.830Z,50.40
2023-04-19T11:47:58.123Z,50.50
2023-04-19T11:50:24.653Z,50.50
2023-04-19T11:52:51.191Z,50.50
2023-04-19T11:55:17.655Z,50.50
2023-04-19T11:57:44.165Z,50.50
2023-04-19T12:00:10.632Z,50.60
2023-04-19T12:02:37.309Z,50.50
2023-04-19T12:05:04.014Z,50.50
2023-04-19T12:07:30.900Z,50.50
2023-04-19T12:09:57.412Z,50.40
2023-04-19T12:12:23.867Z,50.40
2023-04-19T12:14:50.339Z,50.30
2023-04-19T12:17:16.817Z,50.40
2023-04-19T12:19:43.330Z,50.50
2023-04-19T12:22:09.820Z,50.30
2023-04-19T12:24:36.329Z,50.30
2023-04-19T12:27:03.330Z,50.30
2023-04-19T12:29:30.735Z,50.50
2023-04-19T12:31:57.248Z,50.30
2023-04-19T12:34:23.744Z,50.30
2023-04-19T12:36:50.269Z,50.30
2023-04-19T12:39:16.993Z,50.30
2023-04-19T12:41:43.661Z,50.30
2023-04-19T12:44:10.149Z,50.20
2023-04-19T12:46:36.685Z,50.20
2023-04-19T12:49:03.212Z,50.10
2023-04-19T12:51:29.694Z,50.40
2023-04-19T12:53:56.165Z,50.30
2023-04-19T12:56:22.648Z,50.20
2023-04-19T12:58:49.143Z,50.20
2023-04-19T13:01:15.677Z,50.20
2023-04-19T13:03:42.428Z,50.20
2023-04-19T13:06:09.090Z,50.00
2023-04-19T13:08:44.618Z,50.00
2023-04-19T13:11:12.898Z,49.90
2023-04-19T13:13:39.395Z,50.20
2023-04-19T13:16:05.880Z,50.20
2023-04-19T13:18:32.398Z,50.60
2023-04-19T13:20:58.853Z,50.00
2023-04-19T13:23:25.324Z,50.50
2023-04-19T13:25:51.797Z,50.20
2023-04-19T13:28:18.284Z,50.20
2023-04-19T13:30:44.776Z,50.20
2023-04-19T13:33:11.335Z,50.00
2023-04-19T13:35:40.776Z,50.60
2023-04-19T13:38:07.251Z,50.50
2023-04-19T13:40:33.737Z,50.40
2023-04-19T13:43:00.241Z,50.30
2023-04-19T13:45:26.768Z,50.10
2023-04-19T13:47:59.086Z,50.00
2023-04-19T13:50:25.593Z,50.20
2023-04-19T13:52:52.789Z,49.90
2023-04-19T13:55:19.338Z,49.90
2023-04-19T13:57:45.833Z,49.50
2023-04-19T14:00:12.326Z,50.10
2023-04-19T14:02:38.925Z,49.70
2023-04-19T14:05:05.618Z,49.50
2023-04-19T14:07:32.092Z,49.60
2023-04-19T14:09:58.575Z,49.90
2023-04-19T14:12:25.049Z,49.60
2023-04-19T14:14:51.529Z,49.10
2023-04-19T14:17:18.033Z,49.60
2023-04-19T14:19:44.554Z,49.20
2023-04-19T14:22:11.040Z,49.90
2023-04-19T14:24:37.535Z,49.20
2023-04-19T14:27:10.880Z,49.40
2023-04-19T14:29:38.199Z,49.40
2023-04-19T14:32:17.195Z,49.50
2023-04-19T14:34:51.158Z,48.90
2023-04-19T14:37:17.651Z,48.90
2023-04-19T14:39:44.140Z,48.50
2023-04-19T14:42:10.626Z,49.40
2023-04-19T14:44:37.117Z,49.30
2023-04-19T14:47:03.620Z,48.90
2023-04-19T14:49:30.122Z,48.60
2023-04-19T14:51:56.606Z,49.00
2023-04-19T14:54:23.092Z,49.20
2023-04-19T14:56:49.582Z,49.00
2023-04-19T14:59:16.341Z,48.70
2023-04-19T15:01:43.092Z,48.60
2023-04-19T15:04:09.840Z,48.80
2023-04-19T15:06:36.502Z,48.70
2023-04-19T15:09:02.970Z,48.80
2023-04-19T15:11:29.454Z,49.00
2023-04-19T15:13:55.945Z,48.80
2023-04-19T15:16:22.470Z,48.60
2023-04-19T15:18:48.967Z,48.90
2023-04-19T15:21:15.396Z,48.70
2023-04-19T15:23:41.881Z,48.70
2023-04-19T15:26:08.379Z,48.60
2023-04-19T15:28:34.852Z,48.40
2023-04-19T15:31:01.369Z,48.70
2023-04-19T15:33:27.872Z,48.50
2023-04-19T15:35:54.393Z,48.40
2023-04-19T15:38:20.881Z,48.60
2023-04-19T15:40:47.356Z,48.70
2023-04-19T15:43:17.061Z,48.50
2023-04-19T15:45:43.532Z,48.40
2023-04-19T15:48:10.106Z,48.40
2023-04-19T15:50:36.764Z,48.30
2023-04-19T15:53:03.242Z,48.50
2023-04-19T15:55:29.754Z,48.50
2023-04-19T15:57:56.220Z,48.40
2023-04-19T16:00:22.715Z,48.20
2023-04-19T16:02:49.333Z,48.10
2023-04-19T16:05:15.921Z,48.00
2023-04-19T16:07:42.397Z,48.10
2023-04-19T16:10:08.897Z,48.10
2023-04-19T16:12:35.387Z,48.10
2023-04-19T16:15:01.895Z,47.70
2023-04-19T16:17:28.411Z,47.60
2023-04-19T16:19:54.908Z,47.70
2023-04-19T16:22:21.388Z,47.70
2023-04-19T16:24:47.858Z,47.70
2023-04-19T16:27:14.340Z,47.70
2023-04-19T16:29:40.812Z,47.80
2023-04-19T16:32:07.353Z,47.70
2023-04-19T16:34:33.919Z,47.70
2023-04-19T16:37:00.402Z,47.50
2023-04-19T16:39:26.898Z,47.30
2023-04-19T16:41:53.401Z,47.70
2023-04-19T16:44:19.887Z,47.40
2023-04-19T16:46:46.410Z,47.50
2023-04-19T16:49:12.898Z,47.60
2023-04-19T16:51:39.392Z,47.50
2023-04-19T16:54:05.871Z,47.30
2023-04-19T16:56:32.363Z,47.40
2023-04-19T16:58:58.853Z,47.40
2023-04-19T17:01:25.425Z,47.30
2023-04-19T17:03:52.052Z,47.20
2023-04-19T17:06:18.704Z,47.10
2023-04-19T17:08:45.164Z,47.10
2023-04-19T17:11:16.990Z,47.10
2023-04-19T17:13:43.481Z,47.10
2023-04-19T17:16:09.994Z,47.00
2023-04-19T17:18:36.494Z,47.00
2023-04-19T17:21:02.959Z,46.70
2023-04-19T17:23:29.459Z,46.90
2023-04-19T17:25:55.951Z,46.90
2023-04-19T17:28:22.448Z,46.70
2023-04-19T17:30:48.932Z,46.60
2023-04-19T17:33:15.400Z,46.50
2023-04-19T17:35:41.878Z,46.50
2023-04-19T17:38:08.348Z,46.60
2023-04-19T17:40:34.804Z,46.50
2023-04-19T17:43:01.378Z,46.60
2023-04-19T17:45:27.852Z,46.60
2023-04-19T17:47:55.902Z,46.50
2023-04-19T17:50:22.780Z,46.60
2023-04-19T17:52:49.282Z,46.60
2023-04-19T17:55:15.760Z,46.50
2023-04-19T17:57:42.245Z,46.50
2023-04-19T18:00:08.718Z,46.30
2023-04-19T18:02:35.434Z,46.40
2023-04-19T18:05:02.461Z,47.00
2023-04-19T18:07:29.149Z,46.30
2023-04-19T18:09:55.629Z,46.30
2023-04-19T18:12:22.116Z,46.20
2023-04-19T18:14:48.603Z,46.30
2023-04-19T18:17:17.017Z,46.10
2023-04-19T18:19:43.488Z,46.10
2023-04-19T18:22:09.996Z,46.00
2023-04-19T18:24:36.459Z,45.80
2023-04-19T18:27:02.965Z,46.30
2023-04-19T18:29:29.444Z,46.20
2023-04-19T18:31:56.003Z,46.10
2023-04-19T18:34:22.522Z,45.80
2023-04-19T18:36:49.010Z,46.10
2023-04-19T18:39:15.753Z,46.10
2023-04-19T18:41:42.329Z,45.80
2023-04-19T18:46:38.160Z,46.10
2023-04-19T18:49:04.625Z,46.10
2023-04-19T18:51:31.106Z,46.10
2023-04-19T18:53:58.700Z,46.10
2023-04-19T18:56:56.209Z,46.00
2023-04-19T18:59:11.663Z,45.90
2023-04-19T19:01:38.185Z,46.10
2023-04-19T19:06:34.123Z,46.20
2023-04-19T19:09:00.650Z,46.00
2023-04-19T19:11:51.868Z,46.10
2023-04-19T19:14:13.603Z,46.10
2023-04-19T19:16:50.793Z,46.00
2023-04-19T19:19:18.826Z,45.80
2023-04-19T19:21:45.365Z,45.90
2023-04-19T19:24:11.846Z,46.00
2023-04-19T19:26:38.320Z,46.00
2023-04-19T19:29:05.821Z,46.10
2023-04-19T19:31:32.505Z,46.20
2023-04-19T19:34:18.637Z,46.20
2023-04-19T19:36:45.966Z,46.10
2023-04-19T19:39:12.458Z,46.00
2023-04-19T19:42:04.304Z,45.80
2023-04-19T19:44:25.395Z,45.80
2023-04-19T19:46:51.970Z,45.80
2023-04-19T19:49:23.289Z,46.20
2023-04-19T19:51:58.552Z,46.10
2023-04-19T19:54:25.980Z,45.80
2023-04-19T19:59:29.154Z,45.70
2023-04-19T20:01:56.914Z,46.20
2023-04-19T20:04:23.610Z,45.70
2023-04-19T20:09:20.093Z,46.00
2023-04-19T20:11:46.828Z,45.80
2023-04-19T20:14:13.321Z,45.80
2023-04-19T20:16:39.857Z,45.80
2023-04-19T20:19:06.367Z,45.90
2023-04-19T20:21:32.867Z,45.80
2023-04-19T20:23:59.357Z,46.10
2023-04-19T20:26:25.846Z,46.00
2023-04-19T20:28:52.352Z,45.90
2023-04-19T20:31:18.834Z,45.80
2023-04-19T20:33:45.319Z,45.80
2023-04-19T20:36:11.836Z,45.60
2023-04-19T20:38:38.336Z,45.90
2023-04-19T20:41:04.818Z,45.60
2023-04-19T20:43:31.327Z,45.80
2023-04-19T20:45:57.855Z,45.60
2023-04-19T20:48:24.331Z,45.50
2023-04-19T20:50:50.822Z,45.60
2023-04-19T20:53:17.316Z,45.70
2023-04-19T20:55:43.811Z,45.60
2023-04-19T20:58:10.282Z,45.60
2023-04-19T21:00:36.759Z,45.70
2023-04-19T21:03:03.371Z,45.40
2023-04-19T21:05:29.906Z,45.50
2023-04-19T21:07:56.402Z,45.70
2023-04-19T21:10:23.181Z,45.30
2023-04-19T21:12:53.361Z,45.30
2023-04-19T21:15:19.812Z,45.30
2023-04-19T21:17:46.354Z,45.30
2023-04-19T21:20:12.904Z,45.40
2023-04-19T21:22:39.406Z,45.00
2023-04-19T21:25:11.196Z,45.30
2023-04-19T21:27:37.685Z,45.20
2023-04-19T21:30:04.191Z,45.00
2023-04-19T21:32:30.674Z,45.30
2023-04-19T21:34:59.200Z,45.40
2023-04-19T21:37:25.692Z,45.40
2023-04-19T21:39:53.193Z,45.30
2023-04-19T21:42:19.673Z,45.20
2023-04-19T21:44:46.181Z,45.00
2023-04-19T21:47:12.676Z,45.10
2023-04-19T21:49:39.183Z,45.20
2023-04-19T21:52:05.649Z,44.80
2023-04-19T21:54:34.361Z,44.90
2023-04-19T21:57:01.314Z,44.60
2023-04-19T21:59:27.809Z,44.50
2023-04-19T22:01:54.373Z,44.50
2023-04-19T22:04:20.938Z,44.30
2023-04-19T22:06:47.482Z,44.30
2023-04-19T22:09:14.052Z,44.10
2023-04-19T22:11:40.555Z,44.20
2023-04-19T22:14:07.047Z,43.70
2023-04-19T22:16:35.308Z,44.40
2023-04-19T22:19:01.896Z,44.20
2023-04-19T22:21:28.392Z,44.20
2023-04-19T22:23:54.876Z,44.10
2023-04-19T22:26:21.355Z,44.00
2023-04-19T22:28:47.835Z,42.60
2023-04-19T22:31:14.295Z,43.10
2023-04-19T22:33:40.755Z,43.40
2023-04-19T22:36:07.241Z,42.90
2023-04-19T22:38:33.739Z,42.80
2023-04-19T22:41:00.236Z,43.50
2023-04-19T22:43:26.696Z,43.40
2023-04-19T22:45:53.225Z,43.40
2023-04-19T22:48:19.770Z,42.50
2023-04-19T22:50:46.231Z,42.00
2023-04-19T22:53:12.703Z,42.00
2023-04-19T22:55:39.184Z,42.40
2023-04-19T22:58:05.651Z,41.90
2023-04-19T23:00:32.102Z,42.70
2023-04-19T23:02:58.716Z,42.70
2023-04-19T23:08:16.394Z,42.30
2023-04-19T23:10:42.895Z,42.70
2023-04-19T23:13:09.467Z,41.70
2023-04-19T23:15:35.994Z,42.00
2023-04-19T23:18:05.278Z,41.50
2023-04-19T23:20:31.783Z,41.50
2023-04-19T23:22:58.264Z,42.80
2023-04-19T23:25:24.737Z,41.90
2023-04-19T23:27:51.222Z,41.40
2023-04-19T23:30:17.687Z,42.30
2023-04-19T23:32:44.159Z,41.80
2023-04-19T23:35:10.664Z,42.00
2023-04-19T23:37:37.123Z,41.50
2023-04-19T23:40:05.305Z,41.80
2023-04-19T23:42:31.773Z,42.40
2023-04-19T23:44:58.257Z,42.10
2023-04-19T23:47:24.955Z,42.00
2023-04-19T23:49:51.489Z,41.50
2023-04-19T23:52:17.974Z,41.30
2023-04-19T23:54:44.457Z,42.50
2023-04-19T23:57:10.921Z,41.20
2023-04-19T23:59:37.391Z,41.00
